Honolulu, HI

08:55 PM HST am 26. März 2015 (GMT -1000)
Pacific Heights | | Change Station
CLOSE
Current Station
Persönliche Wetterstationen
Location: Honolulu, HI
Höhe: 528 ft
Wetterstationen in der Umgebung

Höhe 528 ft 21.33 °N, 157.84 °W | Updated 19 seconds ago

Mostly Cloudy
Wolkig
70.7 °F
gefühlte 72 °F
N
6.9
Wind Wechselnd Wind aus Ost
Gusts 13.0 mph

Heute
Max. -- | schwach -- °F
--% Regenrisiko
Gestern
Max. -- | schwach -- °F
Precip. -- inch
6:29 AM 6:44 PM
Erstes Viertel, 50% visible
Druck 30.15 inch
Sichtweite 10.0 Meilen
Wolken Few 2900 ft
Teils Wolkig 4000 ft
Wolkig 6000 ft
Hitzeindex 72 °F
Taupunkt 63 °F
Feuchtigkeit 77%
Regen 0.11 inch
Schneehöhe Nicht verfügbar..
UV 0 von 12
Pollen Nicht verfügbar..
Luftqualität Nicht verfügbar..
Flu Activity Nicht verfügbar..
METAR PHNL 270553Z 07014KT 10SM FEW029 SCT040 BKN060 23/18 A3015 RMK AO2 SLP210 P0001 60001 T02280178 10267 20228 53019

More Conditions Fewer Conditions

Druck 30.15 inch
Sichtweite 10.0 Meilen
Wolken Few 2900 ft
Teils Wolkig 4000 ft
Wolkig 6000 ft
Hitzeindex 72 °F
Taupunkt 63 °F
Feuchtigkeit 77%
Regen 0.11 inch
Schneehöhe Nicht verfügbar..
UV 0 von 12
Pollen Nicht verfügbar..
Luftqualität Nicht verfügbar..
Flu Activity Nicht verfügbar..
METAR PHNL 270553Z 07014KT 10SM FEW029 SCT040 BKN060 23/18 A3015 RMK AO2 SLP210 P0001 60001 T02280178 10267 20228 53019

More Conditions Fewer Conditions

10-Day Weather Forecast

Almanac

Astronomie

Mar. 26, 2015 Aufgang Untergang
Genaue Zeit
Bürgerliche Dämmerung
Nautische Dämmerung
Astronomische Dämmerung
Mond
Länge des sichtbaren Lichts
Tageslänge
Tomorrow will be .
, % of the Moon is Illuminated

Heutige Rekorde

State Highs State Lows

Community

WunderPhotos

Upload Photos

1,808,700 Fotos hochgeladen!

WunderBlogs® & News

Nearby

Luftqualität

  Luftqualität LQ Index Schadstoff
Not available.

Schneehöhe

Station Depth Höhe

Erdbebenaktivität

Stadt Distance Mag. Time & Date
Minimum magnitude displayed is 2.5.

küstennahe Wassertemperaturen

Ort Temperatur

Stations

Wetterstationen in der Umgebung

Stationsstandort Temp. Windchill Taupunkt Feuchtigkeit Wind Precip. Höhe Aktualisiert Art